Pond: Past 24 Hour Conditions

 

Puvirnituq Airport

07:00 PM EST 22 November 2014
This table is a summary of hourly weather conditions for the past 24 hours.
Date / Time
(EST)
Wind(knots) Conditions Visibility(km) Pressure(kPa) Air tempC) Relative humidity(%) Dew pointC) Wind Chill
22 November 2014
19:00 SE 13 Light Snow 13 99.5 -15 71 -19 -25
18:00 SE 10 Light Snow 16 99.5 -15 72 -19 -23
17:00 SE 12 Cloudy 24 99.5 -15 79 -18 -25
16:00 ESE 6 Cloudy 24 99.4 -17 81 -19 -24
15:00 ESE 11 Mostly Cloudy 24 99.4 -16 74 -20 -26
14:00 SSE 12 Mostly Cloudy 24 99.4 -15 75 -18 -24
13:00 SSE 14 Mostly Cloudy 24 99.4 -14 69 -18 -24
12:00 SE 16 Cloudy 24 99.4 -14 71 -18 -24
11:00 SSE 12 Cloudy 24 99.4 -14 74 -17 -23
10:00 SSE 13 Cloudy 24 99.5 -14 81 -16 -23
9:00 SSE 15 Cloudy 24 99.5 -13 85 -15 -23
8:00 SSE 14 Cloudy 24 99.5 -12 79 -15 -22
7:00 SSE 19 Light Snow 8 99.5 -11 88 -13 -22
6:00 S 19 Light Snow 3 99.5 -10 92 -11 -20
5:00 S 14 Light Snow 2 99.6 -10 94 -10 -18
4:00 S 16 Light Snow 11 99.6 -10 94 -11 -19
3:00 SSE 13 Light Snow 10 99.7 -11 80 -14 -20
2:00 S 16 Light Snow 5 99.7 -10 83 -12 -19
1:00 S 14 Light Snow 8 99.7 -9 86 -11 -18
0:00 S 16 Light Snow 6 99.8 -11 80 -14 -21
21 November 2014
23:00 S 16 Light Snow 6 99.8 -9 83 -12 -19
22:00 S 16 Light Snow 8 99.8 -9 83 -12 -19
21:00 S 14 Light Snow 10 99.9 -10 85 -12 -19
20:00 S 18 Light Snow 1 99.9 -7 84 -10 -17
19:00 S 18 Light Snow 5 99.9 -9 84 -11 -18
 
Map of Arctic - Eastern Arctic marine weather areas Baker Lake Airport Chesterfield Inlet Airport Coral Harbour Airport Gjoa Haven Airport Kugaaruk Airport Rankin Inlet Airport Shepherd Bay Airport Whale Cove Airport Arctic Bay Brevoort Island Qikiqtarjuaq Airport Cape Dorset Airport Cape Dyer Cape Hooper Clyde Airport Grise Fiord Airport Hall Beach Airport Igloolik Airport Iqaluit Airport Longstaff Bluff Pangnirtung Airport Pond Inlet Airport Repulse Bay Airport Resolute Airport Resolution Island Rowley Island Airport Taloyoak Airport Wager Bay Akulivik Airport Ivujivik Airport Puvirnituq Airport Kangiqsujuaq Airport Kangirsuk Airport Quaqtaq Airport Tasiujaq Airport Cape Kakkiviak Cape Kiglapait Nain Airport Saglek Cape Mercy Kimmirut Airport Aupaluk Airport Salluit Airport Kangiqsualujjuaq Airport Fort Ross
Legend: buoyBuoy land stationLand Station